sensor_id;sensor_type;location;lat;lon;timestamp;pressure;altitude;pressure_sealevel;temperature;humidity
37450;BME280;23309;52.582;13.406;2022-09-27T00:00:10;99169.50;;;21.70;36.34
37450;BME280;23309;52.582;13.406;2022-09-27T00:02:37;99156.63;;;21.66;36.72
37450;BME280;23309;52.582;13.406;2022-09-27T00:05:04;99157.47;;;21.66;36.81
37450;BME280;23309;52.582;13.406;2022-09-27T00:07:33;99142.72;;;21.62;36.80
37450;BME280;23309;52.582;13.406;2022-09-27T00:09:59;99143.28;;;21.64;36.80
37450;BME280;23309;52.582;13.406;2022-09-27T00:12:25;99149.66;;;21.70;36.51
37450;BME280;23309;52.582;13.406;2022-09-27T00:14:52;99148.34;;;21.72;36.69
37450;BME280;23309;52.582;13.406;2022-09-27T00:17:18;99146.94;;;21.70;36.74
37450;BME280;23309;52.582;13.406;2022-09-27T00:19:44;99151.63;;;21.74;36.50
37450;BME280;23309;52.582;13.406;2022-09-27T00:22:10;99136.06;;;21.70;36.77
37450;BME280;23309;52.582;13.406;2022-09-27T00:24:39;99133.94;;;21.72;36.84
37450;BME280;23309;52.582;13.406;2022-09-27T00:27:05;99138.56;;;21.71;36.96
37450;BME280;23309;52.582;13.406;2022-09-27T00:29:31;99126.84;;;21.71;36.79
37450;BME280;23309;52.582;13.406;2022-09-27T00:31:57;99134.75;;;21.72;36.77
37450;BME280;23309;52.582;13.406;2022-09-27T00:34:25;99129.22;;;21.67;36.59
37450;BME280;23309;52.582;13.406;2022-09-27T00:36:52;99127.56;;;21.66;36.53
37450;BME280;23309;52.582;13.406;2022-09-27T00:39:18;99126.41;;;21.62;36.90
37450;BME280;23309;52.582;13.406;2022-09-27T00:41:47;99120.97;;;21.62;36.86
37450;BME280;23309;52.582;13.406;2022-09-27T00:47:31;99108.69;;;21.60;36.97
37450;BME280;23309;52.582;13.406;2022-09-27T00:50:04;99123.41;;;21.64;36.48
37450;BME280;23309;52.582;13.406;2022-09-27T00:52:39;99102.66;;;21.58;36.91
37450;BME280;23309;52.582;13.406;2022-09-27T00:55:13;99102.50;;;21.64;36.76
37450;BME280;23309;52.582;13.406;2022-09-27T00:57:44;99107.88;;;21.59;36.76
37450;BME280;23309;52.582;13.406;2022-09-27T01:00:13;99099.22;;;21.62;36.81
37450;BME280;23309;52.582;13.406;2022-09-27T01:02:43;99104.91;;;21.61;36.90
37450;BME280;23309;52.582;13.406;2022-09-27T01:05:14;99099.38;;;21.56;36.78
37450;BME280;23309;52.582;13.406;2022-09-27T01:07:40;99081.31;;;21.50;36.80
37450;BME280;23309;52.582;13.406;2022-09-27T01:10:08;99092.78;;;21.52;36.63
37450;BME280;23309;52.582;13.406;2022-09-27T01:12:48;99084.56;;;21.63;36.47
37450;BME280;23309;52.582;13.406;2022-09-27T01:15:24;99082.34;;;21.60;36.54
37450;BME280;23309;52.582;13.406;2022-09-27T01:18:05;99079.38;;;21.62;36.82
37450;BME280;23309;52.582;13.406;2022-09-27T01:21:15;99069.19;;;21.69;36.60
37450;BME280;23309;52.582;13.406;2022-09-27T01:24:16;99063.22;;;21.55;36.34
37450;BME280;23309;52.582;13.406;2022-09-27T01:32:35;99061.16;;;21.46;36.58
37450;BME280;23309;52.582;13.406;2022-09-27T01:35:07;99052.34;;;21.39;36.42
37450;BME280;23309;52.582;13.406;2022-09-27T01:37:42;99061.41;;;21.44;36.94
37450;BME280;23309;52.582;13.406;2022-09-27T01:40:16;99055.72;;;21.46;36.49
37450;BME280;23309;52.582;13.406;2022-09-27T01:42:55;99041.47;;;21.39;36.92
37450;BME280;23309;52.582;13.406;2022-09-27T01:45:27;99054.91;;;21.45;36.47
37450;BME280;23309;52.582;13.406;2022-09-27T01:48:01;99044.84;;;21.46;36.75
37450;BME280;23309;52.582;13.406;2022-09-27T01:50:34;99043.13;;;21.40;36.68
37450;BME280;23309;52.582;13.406;2022-09-27T01:53:06;99045.03;;;21.39;36.70
37450;BME280;23309;52.582;13.406;2022-09-27T01:55:37;99038.91;;;21.32;36.83
37450;BME280;23309;52.582;13.406;2022-09-27T01:58:09;99002.53;;;21.17;37.05
37450;BME280;23309;52.582;13.406;2022-09-27T02:00:37;99026.75;;;21.35;36.73
37450;BME280;23309;52.582;13.406;2022-09-27T02:03:12;99019.84;;;21.44;36.65
37450;BME280;23309;52.582;13.406;2022-09-27T02:05:44;99026.34;;;21.43;36.89
37450;BME280;23309;52.582;13.406;2022-09-27T02:08:16;99008.28;;;21.37;36.63
37450;BME280;23309;52.582;13.406;2022-09-27T02:10:45;99024.09;;;21.40;37.00
37450;BME280;23309;52.582;13.406;2022-09-27T02:13:18;99012.59;;;21.49;36.53
37450;BME280;23309;52.582;13.406;2022-09-27T02:15:54;99015.56;;;21.48;36.65
37450;BME280;23309;52.582;13.406;2022-09-27T02:18:33;99009.13;;;21.54;36.76
37450;BME280;23309;52.582;13.406;2022-09-27T02:21:05;98993.50;;;21.44;36.58
37450;BME280;23309;52.582;13.406;2022-09-27T02:23:37;98995.47;;;21.49;36.55
37450;BME280;23309;52.582;13.406;2022-09-27T02:26:13;98991.44;;;21.51;36.41
37450;BME280;23309;52.582;13.406;2022-09-27T02:28:46;98992.84;;;21.54;36.34
37450;BME280;23309;52.582;13.406;2022-09-27T02:31:14;98992.59;;;21.55;36.62
37450;BME280;23309;52.582;13.406;2022-09-27T02:33:45;98976.38;;;21.60;36.03
37450;BME280;23309;52.582;13.406;2022-09-27T02:36:13;98978.59;;;21.63;36.12
37450;BME280;23309;52.582;13.406;2022-09-27T02:38:40;98983.66;;;21.71;36.13
37450;BME280;23309;52.582;13.406;2022-09-27T02:41:13;98976.53;;;21.70;36.13
37450;BME280;23309;52.582;13.406;2022-09-27T02:43:39;98975.22;;;21.73;36.28
37450;BME280;23309;52.582;13.406;2022-09-27T02:46:25;98963.19;;;21.85;35.96
37450;BME280;23309;52.582;13.406;2022-09-27T02:49:08;98960.72;;;21.84;35.81
37450;BME280;23309;52.582;13.406;2022-09-27T02:51:50;98958.50;;;21.81;35.97
37450;BME280;23309;52.582;13.406;2022-09-27T02:54:28;98958.66;;;21.74;35.95
37450;BME280;23309;52.582;13.406;2022-09-27T02:57:10;98953.25;;;21.74;36.06
37450;BME280;23309;52.582;13.406;2022-09-27T02:59:47;98948.06;;;21.73;36.39
37450;BME280;23309;52.582;13.406;2022-09-27T03:02:20;98948.41;;;21.76;36.25
37450;BME280;23309;52.582;13.406;2022-09-27T03:04:56;98950.59;;;21.79;36.12
37450;BME280;23309;52.582;13.406;2022-09-27T03:07:24;98952.75;;;21.77;36.22
37450;BME280;23309;52.582;13.406;2022-09-27T03:09:53;98935.78;;;21.70;36.23
37450;BME280;23309;52.582;13.406;2022-09-27T03:12:20;98951.66;;;21.78;36.15
37450;BME280;23309;52.582;13.406;2022-09-27T03:14:46;98955.47;;;21.77;35.97
37450;BME280;23309;52.582;13.406;2022-09-27T03:17:12;98943.19;;;21.75;36.34
37450;BME280;23309;52.582;13.406;2022-09-27T03:19:38;98957.19;;;21.83;36.43
37450;BME280;23309;52.582;13.406;2022-09-27T03:22:08;98940.06;;;21.83;36.19
37450;BME280;23309;52.582;13.406;2022-09-27T03:24:34;98931.38;;;21.86;35.82
37450;BME280;23309;52.582;13.406;2022-09-27T03:27:00;98930.72;;;21.95;35.81
37450;BME280;23309;52.582;13.406;2022-09-27T03:29:26;98926.84;;;21.91;36.00
37450;BME280;23309;52.582;13.406;2022-09-27T03:31:52;98925.47;;;21.89;36.01
37450;BME280;23309;52.582;13.406;2022-09-27T03:34:18;98929.00;;;21.89;36.23
37450;BME280;23309;52.582;13.406;2022-09-27T03:36:44;98917.56;;;21.87;35.87
37450;BME280;23309;52.582;13.406;2022-09-27T03:39:13;98918.44;;;21.93;36.04
37450;BME280;23309;52.582;13.406;2022-09-27T03:41:39;98913.00;;;21.93;35.86
37450;BME280;23309;52.582;13.406;2022-09-27T03:44:05;98913.84;;;21.93;35.95
37450;BME280;23309;52.582;13.406;2022-09-27T03:46:31;98906.38;;;21.84;35.91
37450;BME280;23309;52.582;13.406;2022-09-27T03:48:57;98912.94;;;21.88;35.74
37450;BME280;23309;52.582;13.406;2022-09-27T03:51:24;98891.50;;;21.70;35.86
37450;BME280;23309;52.582;13.406;2022-09-27T03:53:50;98914.16;;;21.75;36.41
37450;BME280;23309;52.582;13.406;2022-09-27T03:56:19;98916.16;;;21.68;36.83
37450;BME280;23309;52.582;13.406;2022-09-27T03:58:45;98906.81;;;21.59;36.98
37450;BME280;23309;52.582;13.406;2022-09-27T04:01:11;98908.97;;;21.57;36.99
37450;BME280;23309;52.582;13.406;2022-09-27T04:03:37;98899.13;;;21.56;36.75
37450;BME280;23309;52.582;13.406;2022-09-27T04:06:04;98906.47;;;21.56;36.90
37450;BME280;23309;52.582;13.406;2022-09-27T04:08:30;98893.38;;;21.53;37.32
37450;BME280;23309;52.582;13.406;2022-09-27T04:10:56;98894.94;;;21.49;37.65
37450;BME280;23309;52.582;13.406;2022-09-27T04:13:25;98893.63;;;21.51;37.68
37450;BME280;23309;52.582;13.406;2022-09-27T04:15:51;98901.06;;;21.39;38.32
37450;BME280;23309;52.582;13.406;2022-09-27T04:18:17;98905.00;;;21.32;38.22
37450;BME280;23309;52.582;13.406;2022-09-27T04:20:43;98897.31;;;21.24;38.29
37450;BME280;23309;52.582;13.406;2022-09-27T04:23:10;98898.88;;;21.20;38.53
37450;BME280;23309;52.582;13.406;2022-09-27T04:25:36;98899.09;;;21.18;38.77
37450;BME280;23309;52.582;13.406;2022-09-27T04:28:02;98892.84;;;21.18;38.95
37450;BME280;23309;52.582;13.406;2022-09-27T04:30:31;98903.69;;;21.18;39.17
37450;BME280;23309;52.582;13.406;2022-09-27T04:32:57;98897.03;;;21.09;39.30
37450;BME280;23309;52.582;13.406;2022-09-27T04:35:24;98898.50;;;21.16;38.90
37450;BME280;23309;52.582;13.406;2022-09-27T04:37:50;98893.91;;;21.17;39.16
37450;BME280;23309;52.582;13.406;2022-09-27T04:40:16;98898.88;;;21.20;38.90
37450;BME280;23309;52.582;13.406;2022-09-27T04:42:42;98895.94;;;21.10;39.51
37450;BME280;23309;52.582;13.406;2022-09-27T04:45:09;98902.22;;;21.10;39.50
37450;BME280;23309;52.582;13.406;2022-09-27T04:47:41;98904.44;;;21.13;39.43
37450;BME280;23309;52.582;13.406;2022-09-27T04:50:08;98904.38;;;21.08;40.06
37450;BME280;23309;52.582;13.406;2022-09-27T04:52:34;98909.59;;;20.98;40.47
37450;BME280;23309;52.582;13.406;2022-09-27T04:55:01;98890.41;;;20.88;40.69
37450;BME280;23309;52.582;13.406;2022-09-27T04:57:27;98899.53;;;20.82;40.89
37450;BME280;23309;52.582;13.406;2022-09-27T04:59:53;98900.53;;;20.76;41.33
37450;BME280;23309;52.582;13.406;2022-09-27T05:02:19;98895.81;;;20.72;41.79
37450;BME280;23309;52.582;13.406;2022-09-27T05:04:48;98899.28;;;20.67;42.03
37450;BME280;23309;52.582;13.406;2022-09-27T05:07:14;98891.28;;;20.61;42.39
37450;BME280;23309;52.582;13.406;2022-09-27T05:09:41;98902.84;;;20.56;42.34
37450;BME280;23309;52.582;13.406;2022-09-27T05:12:07;98909.16;;;20.45;42.58
37450;BME280;23309;52.582;13.406;2022-09-27T05:14:33;98889.41;;;20.33;42.93
37450;BME280;23309;52.582;13.406;2022-09-27T05:17:00;98892.34;;;20.32;43.42
37450;BME280;23309;52.582;13.406;2022-09-27T05:19:26;98902.03;;;20.28;43.63
37450;BME280;23309;52.582;13.406;2022-09-27T05:21:55;98890.75;;;20.19;43.33
37450;BME280;23309;52.582;13.406;2022-09-27T05:24:21;98887.31;;;20.24;43.77
37450;BME280;23309;52.582;13.406;2022-09-27T05:26:47;98899.22;;;20.23;43.75
37450;BME280;23309;52.582;13.406;2022-09-27T05:29:13;98899.53;;;20.26;43.87
37450;BME280;23309;52.582;13.406;2022-09-27T05:31:40;98897.81;;;20.20;44.07
37450;BME280;23309;52.582;13.406;2022-09-27T05:34:08;98895.47;;;20.12;44.61
37450;BME280;23309;52.582;13.406;2022-09-27T05:36:34;98909.03;;;20.12;44.68
37450;BME280;23309;52.582;13.406;2022-09-27T05:39:03;98900.75;;;20.07;44.59
37450;BME280;23309;52.582;13.406;2022-09-27T05:41:30;98896.06;;;20.03;45.14
37450;BME280;23309;52.582;13.406;2022-09-27T05:43:56;98902.94;;;19.94;45.44
37450;BME280;23309;52.582;13.406;2022-09-27T05:46:22;98903.28;;;19.86;45.52
37450;BME280;23309;52.582;13.406;2022-09-27T05:48:48;98908.94;;;19.84;46.02
37450;BME280;23309;52.582;13.406;2022-09-27T05:51:15;98902.94;;;19.82;45.80
37450;BME280;23309;52.582;13.406;2022-09-27T05:53:41;98907.09;;;19.73;46.40
37450;BME280;23309;52.582;13.406;2022-09-27T05:56:10;98902.00;;;19.77;46.52
37450;BME280;23309;52.582;13.406;2022-09-27T05:58:36;98899.06;;;19.78;46.24
37450;BME280;23309;52.582;13.406;2022-09-27T06:01:05;98902.59;;;19.79;46.61
37450;BME280;23309;52.582;13.406;2022-09-27T06:03:32;98906.00;;;19.86;46.42
37450;BME280;23309;52.582;13.406;2022-09-27T06:06:01;98897.63;;;19.87;46.30
37450;BME280;23309;52.582;13.406;2022-09-27T06:08:28;98901.75;;;19.90;46.29
37450;BME280;23309;52.582;13.406;2022-09-27T06:11:01;98879.59;;;19.81;46.59
37450;BME280;23309;52.582;13.406;2022-09-27T06:13:30;98882.56;;;19.80;46.62
37450;BME280;23309;52.582;13.406;2022-09-27T06:15:57;98894.22;;;19.80;46.95
37450;BME280;23309;52.582;13.406;2022-09-27T06:18:23;98885.38;;;19.85;46.95
37450;BME280;23309;52.582;13.406;2022-09-27T06:20:49;98879.38;;;19.83;46.91
37450;BME280;23309;52.582;13.406;2022-09-27T06:23:18;98891.50;;;19.92;46.80
37450;BME280;23309;52.582;13.406;2022-09-27T06:25:45;98883.63;;;19.79;46.91
37450;BME280;23309;52.582;13.406;2022-09-27T06:28:12;98887.41;;;19.78;46.64
37450;BME280;23309;52.582;13.406;2022-09-27T06:30:43;98897.75;;;19.81;47.03
37450;BME280;23309;52.582;13.406;2022-09-27T06:33:12;98899.41;;;19.82;47.29
37450;BME280;23309;52.582;13.406;2022-09-27T06:35:39;98892.91;;;19.83;47.29
37450;BME280;23309;52.582;13.406;2022-09-27T06:38:08;98890.56;;;19.75;47.23
37450;BME280;23309;52.582;13.406;2022-09-27T06:40:36;98905.16;;;19.85;46.98
37450;BME280;23309;52.582;13.406;2022-09-27T06:43:02;98898.44;;;19.88;47.44
37450;BME280;23309;52.582;13.406;2022-09-27T06:45:28;98897.16;;;19.79;47.25
37450;BME280;23309;52.582;13.406;2022-09-27T06:47:57;98880.69;;;19.80;47.17
37450;BME280;23309;52.582;13.406;2022-09-27T06:50:24;98871.50;;;19.70;47.27
37450;BME280;23309;52.582;13.406;2022-09-27T06:52:50;98902.69;;;19.84;47.54
37450;BME280;23309;52.582;13.406;2022-09-27T06:55:16;98894.56;;;19.84;47.36
37450;BME280;23309;52.582;13.406;2022-09-27T06:57:42;98903.63;;;19.89;47.19
37450;BME280;23309;52.582;13.406;2022-09-27T07:00:11;98901.16;;;19.88;47.34
37450;BME280;23309;52.582;13.406;2022-09-27T07:02:37;98907.53;;;19.82;47.47
37450;BME280;23309;52.582;13.406;2022-09-27T07:05:07;98891.75;;;19.79;47.05
37450;BME280;23309;52.582;13.406;2022-09-27T07:07:33;98906.69;;;19.81;47.34
37450;BME280;23309;52.582;13.406;2022-09-27T07:09:59;98907.06;;;19.85;46.99
37450;BME280;23309;52.582;13.406;2022-09-27T07:12:26;98906.56;;;19.88;47.31
37450;BME280;23309;52.582;13.406;2022-09-27T07:14:52;98900.59;;;19.86;47.13
37450;BME280;23309;52.582;13.406;2022-09-27T07:17:18;98905.75;;;19.87;47.51
37450;BME280;23309;52.582;13.406;2022-09-27T07:19:44;98901.16;;;19.88;47.69
37450;BME280;23309;52.582;13.406;2022-09-27T07:22:13;98908.81;;;19.91;47.84
37450;BME280;23309;52.582;13.406;2022-09-27T07:24:39;98904.09;;;19.86;47.64
37450;BME280;23309;52.582;13.406;2022-09-27T07:27:05;98909.06;;;19.89;47.60
37450;BME280;23309;52.582;13.406;2022-09-27T07:29:32;98912.69;;;19.95;47.84
37450;BME280;23309;52.582;13.406;2022-09-27T07:31:58;98915.97;;;19.97;47.32
37450;BME280;23309;52.582;13.406;2022-09-27T07:34:24;98903.59;;;20.01;47.81
37450;BME280;23309;52.582;13.406;2022-09-27T07:36:50;98911.84;;;20.06;47.59
37450;BME280;23309;52.582;13.406;2022-09-27T07:39:19;98917.16;;;20.01;47.31
37450;BME280;23309;52.582;13.406;2022-09-27T07:41:45;98915.31;;;19.90;47.87
37450;BME280;23309;52.582;13.406;2022-09-27T07:44:11;98904.09;;;19.86;47.72
37450;BME280;23309;52.582;13.406;2022-09-27T07:46:37;98898.22;;;19.89;48.02
37450;BME280;23309;52.582;13.406;2022-09-27T07:49:04;98897.00;;;19.97;48.24
37450;BME280;23309;52.582;13.406;2022-09-27T07:51:30;98905.97;;;19.97;47.71
37450;BME280;23309;52.582;13.406;2022-09-27T07:53:56;98902.19;;;19.98;47.83
37450;BME280;23309;52.582;13.406;2022-09-27T07:56:25;98896.88;;;20.03;47.61
37450;BME280;23309;52.582;13.406;2022-09-27T07:58:51;98902.66;;;20.07;47.45
37450;BME280;23309;52.582;13.406;2022-09-27T08:01:18;98900.56;;;19.97;47.54
37450;BME280;23309;52.582;13.406;2022-09-27T08:03:44;98899.03;;;20.01;47.70
37450;BME280;23309;52.582;13.406;2022-09-27T08:06:10;98901.41;;;20.09;47.63
37450;BME280;23309;52.582;13.406;2022-09-27T08:08:36;98897.94;;;20.14;47.99
37450;BME280;23309;52.582;13.406;2022-09-27T08:11:11;98909.09;;;20.29;47.43
37450;BME280;23309;52.582;13.406;2022-09-27T08:13:40;98913.94;;;20.27;47.41
37450;BME280;23309;52.582;13.406;2022-09-27T08:16:06;98908.75;;;20.25;47.03
37450;BME280;23309;52.582;13.406;2022-09-27T08:18:32;98889.47;;;20.10;47.59
37450;BME280;23309;52.582;13.406;2022-09-27T08:20:59;98911.84;;;20.17;47.52
37450;BME280;23309;52.582;13.406;2022-09-27T08:23:26;98921.63;;;20.18;47.53
37450;BME280;23309;52.582;13.406;2022-09-27T08:25:53;98907.00;;;20.19;47.41
37450;BME280;23309;52.582;13.406;2022-09-27T08:28:19;98915.00;;;20.26;47.22
37450;BME280;23309;52.582;13.406;2022-09-27T08:30:48;98914.38;;;20.35;47.36
37450;BME280;23309;52.582;13.406;2022-09-27T08:33:15;98914.00;;;20.43;47.71
37450;BME280;23309;52.582;13.406;2022-09-27T08:35:41;98913.63;;;20.51;46.82
37450;BME280;23309;52.582;13.406;2022-09-27T08:38:09;98909.25;;;20.50;47.30
37450;BME280;23309;52.582;13.406;2022-09-27T08:40:48;98916.03;;;20.64;46.94
37450;BME280;23309;52.582;13.406;2022-09-27T08:43:26;98920.72;;;20.69;46.79
37450;BME280;23309;52.582;13.406;2022-09-27T08:46:14;98920.56;;;20.75;46.50
37450;BME280;23309;52.582;13.406;2022-09-27T08:48:52;98921.59;;;20.58;47.06
37450;BME280;23309;52.582;13.406;2022-09-27T08:51:27;98924.41;;;20.63;46.80
37450;BME280;23309;52.582;13.406;2022-09-27T08:53:59;98920.84;;;20.62;46.57
37450;BME280;23309;52.582;13.406;2022-09-27T08:56:27;98927.34;;;20.61;46.44
37450;BME280;23309;52.582;13.406;2022-09-27T08:58:59;98919.81;;;20.63;46.71
37450;BME280;23309;52.582;13.406;2022-09-27T09:01:29;98928.06;;;20.68;47.20
37450;BME280;23309;52.582;13.406;2022-09-27T09:03:58;98925.09;;;20.70;46.75
37450;BME280;23309;52.582;13.406;2022-09-27T09:06:29;98931.94;;;20.72;46.69
37450;BME280;23309;52.582;13.406;2022-09-27T09:09:04;98926.34;;;20.79;46.46
37450;BME280;23309;52.582;13.406;2022-09-27T09:11:46;98909.72;;;20.75;46.33
37450;BME280;23309;52.582;13.406;2022-09-27T09:14:36;98911.78;;;20.85;46.45
37450;BME280;23309;52.582;13.406;2022-09-27T09:17:23;98911.78;;;20.85;46.15
37450;BME280;23309;52.582;13.406;2022-09-27T09:20:12;98919.66;;;20.98;46.03
37450;BME280;23309;52.582;13.406;2022-09-27T09:22:58;98922.22;;;21.04;45.99
37450;BME280;23309;52.582;13.406;2022-09-27T09:25:32;98924.34;;;21.02;46.33
37450;BME280;23309;52.582;13.406;2022-09-27T09:28:19;98916.13;;;21.14;46.03
37450;BME280;23309;52.582;13.406;2022-09-27T09:31:05;98914.41;;;21.24;45.63
37450;BME280;23309;52.582;13.406;2022-09-27T09:33:38;98916.63;;;21.27;46.11
37450;BME280;23309;52.582;13.406;2022-09-27T09:36:14;98914.91;;;21.38;45.48
37450;BME280;23309;52.582;13.406;2022-09-27T09:38:49;98909.63;;;21.48;45.39
37450;BME280;23309;52.582;13.406;2022-09-27T09:41:21;98915.53;;;21.45;45.82
37450;BME280;23309;52.582;13.406;2022-09-27T09:43:56;98897.53;;;21.39;45.49
37450;BME280;23309;52.582;13.406;2022-09-27T09:46:30;98915.13;;;21.53;45.61
37450;BME280;23309;52.582;13.406;2022-09-27T09:49:03;98908.84;;;21.69;45.67
37450;BME280;23309;52.582;13.406;2022-09-27T09:51:41;98904.00;;;21.71;44.47
37450;BME280;23309;52.582;13.406;2022-09-27T09:54:20;98910.53;;;21.91;45.18
37450;BME280;23309;52.582;13.406;2022-09-27T09:56:51;98919.59;;;21.97;44.48
37450;BME280;23309;52.582;13.406;2022-09-27T09:59:27;98917.91;;;21.91;44.39
37450;BME280;23309;52.582;13.406;2022-09-27T10:01:59;98908.25;;;21.83;43.90
37450;BME280;23309;52.582;13.406;2022-09-27T10:04:35;98904.06;;;21.76;44.03
37450;BME280;23309;52.582;13.406;2022-09-27T10:07:01;98905.22;;;21.80;43.96
37450;BME280;23309;52.582;13.406;2022-09-27T10:09:28;98904.97;;;21.81;43.63
37450;BME280;23309;52.582;13.406;2022-09-27T10:11:54;98896.34;;;21.84;43.80
37450;BME280;23309;52.582;13.406;2022-09-27T10:14:21;98902.56;;;21.85;43.68
37450;BME280;23309;52.582;13.406;2022-09-27T10:16:53;98899.13;;;21.89;43.85
37450;BME280;23309;52.582;13.406;2022-09-27T10:19:27;98900.31;;;21.98;43.10
37450;BME280;23309;52.582;13.406;2022-09-27T10:22:01;98896.22;;;21.96;43.61
37450;BME280;23309;52.582;13.406;2022-09-27T10:24:27;98894.16;;;22.08;43.91
37450;BME280;23309;52.582;13.406;2022-09-27T10:26:58;98894.78;;;22.36;43.50
37450;BME280;23309;52.582;13.406;2022-09-27T10:29:30;98894.72;;;22.53;43.02
37450;BME280;23309;52.582;13.406;2022-09-27T10:31:58;98891.81;;;22.59;41.93
37450;BME280;23309;52.582;13.406;2022-09-27T10:34:30;98889.88;;;22.55;42.45
37450;BME280;23309;52.582;13.406;2022-09-27T10:37:15;98899.72;;;22.61;42.24
37450;BME280;23309;52.582;13.406;2022-09-27T10:39:42;98891.97;;;22.48;42.85
37450;BME280;23309;52.582;13.406;2022-09-27T10:42:21;98891.25;;;22.57;42.46
37450;BME280;23309;52.582;13.406;2022-09-27T10:44:48;98892.22;;;22.46;42.32
37450;BME280;23309;52.582;13.406;2022-09-27T10:47:18;98886.56;;;22.53;41.94
37450;BME280;23309;52.582;13.406;2022-09-27T10:49:45;98882.22;;;22.52;41.96
37450;BME280;23309;52.582;13.406;2022-09-27T10:52:17;98896.69;;;22.57;41.62
37450;BME280;23309;52.582;13.406;2022-09-27T10:54:53;98894.19;;;22.51;41.63
37450;BME280;23309;52.582;13.406;2022-09-27T10:57:21;98873.91;;;22.42;41.72
37450;BME280;23309;52.582;13.406;2022-09-27T10:59:53;98885.97;;;22.46;41.66
37450;BME280;23309;52.582;13.406;2022-09-27T11:02:23;98875.44;;;22.54;41.72
37450;BME280;23309;52.582;13.406;2022-09-27T11:05:05;98873.38;;;22.66;41.81
37450;BME280;23309;52.582;13.406;2022-09-27T11:07:35;98879.84;;;22.60;41.55
37450;BME280;23309;52.582;13.406;2022-09-27T11:10:21;98886.22;;;22.71;41.28
37450;BME280;23309;52.582;13.406;2022-09-27T11:13:06;98884.03;;;22.68;41.65
37450;BME280;23309;52.582;13.406;2022-09-27T11:15:44;98883.03;;;22.52;41.99
37450;BME280;23309;52.582;13.406;2022-09-27T11:18:22;98885.25;;;22.34;42.32
37450;BME280;23309;52.582;13.406;2022-09-27T11:21:01;98891.00;;;22.16;43.65
37450;BME280;23309;52.582;13.406;2022-09-27T11:23:49;98870.47;;;22.03;44.15
37450;BME280;23309;52.582;13.406;2022-09-27T11:26:35;98879.91;;;21.96;44.23
37450;BME280;23309;52.582;13.406;2022-09-27T11:29:17;98888.56;;;21.93;44.69
37450;BME280;23309;52.582;13.406;2022-09-27T11:32:02;98888.00;;;21.91;44.79
37450;BME280;23309;52.582;13.406;2022-09-27T11:34:48;98890.72;;;21.74;44.64
37450;BME280;23309;52.582;13.406;2022-09-27T11:37:26;98878.34;;;21.45;44.95
37450;BME280;23309;52.582;13.406;2022-09-27T11:40:10;98887.88;;;21.48;44.72
37450;BME280;23309;52.582;13.406;2022-09-27T11:43:08;98887.41;;;21.51;44.50
37450;BME280;23309;52.582;13.406;2022-09-27T11:45:50;98886.91;;;21.37;44.93
37450;BME280;23309;52.582;13.406;2022-09-27T11:48:36;98890.47;;;21.38;44.81
37450;BME280;23309;52.582;13.406;2022-09-27T11:51:21;98885.44;;;21.30;45.84
37450;BME280;23309;52.582;13.406;2022-09-27T11:54:11;98887.91;;;21.31;45.77
37450;BME280;23309;52.582;13.406;2022-09-27T11:56:48;98919.09;;;21.29;45.80
37450;BME280;23309;52.582;13.406;2022-09-27T11:59:42;98922.69;;;21.18;44.18
37450;BME280;23309;52.582;13.406;2022-09-27T12:05:24;98912.28;;;20.26;45.15
37450;BME280;23309;52.582;13.406;2022-09-27T12:08:11;98909.72;;;20.08;45.58
37450;BME280;23309;52.582;13.406;2022-09-27T12:10:49;98926.50;;;19.82;46.29
37450;BME280;23309;52.582;13.406;2022-09-27T12:13:28;98930.84;;;19.83;46.57
37450;BME280;23309;52.582;13.406;2022-09-27T12:15:58;98931.09;;;19.70;47.51
37450;BME280;23309;52.582;13.406;2022-09-27T12:18:28;98923.94;;;19.52;47.30
37450;BME280;23309;52.582;13.406;2022-09-27T12:20:57;98935.94;;;19.56;47.77
37450;BME280;23309;52.582;13.406;2022-09-27T12:23:32;98937.81;;;19.56;48.12
37450;BME280;23309;52.582;13.406;2022-09-27T12:26:06;98923.81;;;19.47;48.25
37450;BME280;23309;52.582;13.406;2022-09-27T12:28:43;98937.81;;;19.56;48.63
37450;BME280;23309;52.582;13.406;2022-09-27T12:31:17;98934.53;;;19.42;48.93
37450;BME280;23309;52.582;13.406;2022-09-27T12:33:53;98941.59;;;19.55;49.01
37450;BME280;23309;52.582;13.406;2022-09-27T12:36:27;98952.31;;;19.61;49.16
37450;BME280;23309;52.582;13.406;2022-09-27T12:39:03;98959.84;;;19.71;48.66
37450;BME280;23309;52.582;13.406;2022-09-27T12:41:36;98954.44;;;19.71;48.65
37450;BME280;23309;52.582;13.406;2022-09-27T12:44:09;98958.06;;;19.76;49.09
37450;BME280;23309;52.582;13.406;2022-09-27T12:46:48;98950.53;;;19.78;48.89
37450;BME280;23309;52.582;13.406;2022-09-27T12:49:22;98954.53;;;19.87;49.14
37450;BME280;23309;52.582;13.406;2022-09-27T12:51:55;98952.88;;;19.86;49.06
37450;BME280;23309;52.582;13.406;2022-09-27T12:54:42;98951.59;;;20.00;49.01
37450;BME280;23309;52.582;13.406;2022-09-27T12:57:22;98952.59;;;20.34;50.18
37450;BME280;23309;52.582;13.406;2022-09-27T13:00:09;98947.31;;;20.83;49.13
37450;BME280;23309;52.582;13.406;2022-09-27T13:03:20;98932.50;;;21.19;47.71
37450;BME280;23309;52.582;13.406;2022-09-27T13:06:19;98944.25;;;21.41;45.81
37450;BME280;23309;52.582;13.406;2022-09-27T13:09:29;98955.13;;;21.41;45.16
37450;BME280;23309;52.582;13.406;2022-09-27T13:12:03;98960.47;;;21.36;46.25
37450;BME280;23309;52.582;13.406;2022-09-27T13:14:39;98953.56;;;21.45;45.54
37450;BME280;23309;52.582;13.406;2022-09-27T13:17:50;98964.19;;;21.63;44.93
37450;BME280;23309;52.582;13.406;2022-09-27T13:20:47;98955.16;;;21.74;45.09
37450;BME280;23309;52.582;13.406;2022-09-27T13:29:27;98957.84;;;21.90;44.55
37450;BME280;23309;52.582;13.406;2022-09-27T13:32:21;98972.16;;;21.86;43.57